sensor_id;sensor_type;location;lat;lon;timestamp;pressure;altitude;pressure_sealevel;temperature;humidity
60974;BME280;46846;51.528;5.076;2023-05-24T00:01:05;101960.78;;;14.64;50.65
60974;BME280;46846;51.528;5.076;2023-05-24T00:03:32;101959.88;;;14.63;50.44
60974;BME280;46846;51.528;5.076;2023-05-24T00:05:59;101954.66;;;14.60;50.59
60974;BME280;46846;51.528;5.076;2023-05-24T00:08:25;101958.31;;;14.58;50.43
60974;BME280;46846;51.528;5.076;2023-05-24T00:10:51;101952.97;;;14.56;50.43
60974;BME280;46846;51.528;5.076;2023-05-24T00:13:16;101954.84;;;14.54;50.46
60974;BME280;46846;51.528;5.076;2023-05-24T00:15:42;101948.72;;;14.51;50.52
60974;BME280;46846;51.528;5.076;2023-05-24T00:18:07;101944.38;;;14.46;50.70
60974;BME280;46846;51.528;5.076;2023-05-24T00:20:33;101932.84;;;14.44;50.69
60974;BME280;46846;51.528;5.076;2023-05-24T00:22:58;101932.91;;;14.43;50.58
60974;BME280;46846;51.528;5.076;2023-05-24T00:25:24;101927.66;;;14.40;50.81
60974;BME280;46846;51.528;5.076;2023-05-24T00:27:49;101929.50;;;14.38;50.74
60974;BME280;46846;51.528;5.076;2023-05-24T00:30:15;101924.25;;;14.34;50.51
60974;BME280;46846;51.528;5.076;2023-05-24T00:32:40;101918.94;;;14.33;50.60
60974;BME280;46846;51.528;5.076;2023-05-24T00:35:06;101925.28;;;14.30;50.77
60974;BME280;46846;51.528;5.076;2023-05-24T00:37:31;101919.09;;;14.28;50.76
60974;BME280;46846;51.528;5.076;2023-05-24T00:39:57;101909.34;;;14.26;50.62
60974;BME280;46846;51.528;5.076;2023-05-24T00:42:22;101909.41;;;14.24;50.89
60974;BME280;46846;51.528;5.076;2023-05-24T00:44:48;101905.97;;;14.20;50.64
60974;BME280;46846;51.528;5.076;2023-05-24T00:47:14;101913.16;;;14.18;51.01
60974;BME280;46846;51.528;5.076;2023-05-24T00:49:39;101911.47;;;14.16;50.73
60974;BME280;46846;51.528;5.076;2023-05-24T00:52:05;101911.56;;;14.13;51.21
60974;BME280;46846;51.528;5.076;2023-05-24T00:54:33;101916.09;;;14.11;50.83
60974;BME280;46846;51.528;5.076;2023-05-24T00:56:58;101909.91;;;14.08;51.04
60974;BME280;46846;51.528;5.076;2023-05-24T00:59:25;101917.09;;;14.06;51.02
60974;BME280;46846;51.528;5.076;2023-05-24T01:01:50;101912.81;;;14.01;50.91
60974;BME280;46846;51.528;5.076;2023-05-24T01:04:16;101915.53;;;13.99;50.92
60974;BME280;46846;51.528;5.076;2023-05-24T01:07:14;101916.53;;;13.97;51.05
60974;BME280;46846;51.528;5.076;2023-05-24T01:20:12;101905.31;;;13.84;51.06
60974;BME280;46846;51.528;5.076;2023-05-24T01:28:15;101903.81;;;13.75;50.96
60974;BME280;46846;51.528;5.076;2023-05-24T01:30:42;101901.22;;;13.72;51.12
60974;BME280;46846;51.528;5.076;2023-05-24T01:33:08;101903.09;;;13.70;51.39
60974;BME280;46846;51.528;5.076;2023-05-24T01:35:35;101901.41;;;13.65;51.48
60974;BME280;46846;51.528;5.076;2023-05-24T01:38:08;101903.22;;;13.65;51.39
60974;BME280;46846;51.528;5.076;2023-05-24T01:40:37;101893.53;;;13.61;51.25
60974;BME280;46846;51.528;5.076;2023-05-24T01:45:43;101901.69;;;13.56;51.36
60974;BME280;46846;51.528;5.076;2023-05-24T01:50:52;101893.81;;;13.51;51.57
60974;BME280;46846;51.528;5.076;2023-05-24T01:53:20;101892.09;;;13.49;51.30
60974;BME280;46846;51.528;5.076;2023-05-24T01:55:48;101893.97;;;13.47;51.53
60974;BME280;46846;51.528;5.076;2023-05-24T01:58:17;101890.47;;;13.43;51.29
60974;BME280;46846;51.528;5.076;2023-05-24T02:00:45;101894.09;;;13.40;51.35
60974;BME280;46846;51.528;5.076;2023-05-24T02:03:13;101897.69;;;13.39;51.46
60974;BME280;46846;51.528;5.076;2023-05-24T02:05:38;101898.66;;;13.37;51.61
60974;BME280;46846;51.528;5.076;2023-05-24T02:08:04;101904.16;;;13.32;51.76
60974;BME280;46846;51.528;5.076;2023-05-24T02:10:29;101904.19;;;13.31;51.45
60974;BME280;46846;51.528;5.076;2023-05-24T02:12:55;101908.69;;;13.29;51.60
60974;BME280;46846;51.528;5.076;2023-05-24T02:15:20;101902.53;;;13.26;51.81
60974;BME280;46846;51.528;5.076;2023-05-24T02:17:46;101903.50;;;13.24;51.95
60974;BME280;46846;51.528;5.076;2023-05-24T02:20:12;101902.69;;;13.20;51.85
60974;BME280;46846;51.528;5.076;2023-05-24T02:22:37;101908.09;;;13.19;51.93
60974;BME280;46846;51.528;5.076;2023-05-24T02:25:03;101907.28;;;13.15;51.69
60974;BME280;46846;51.528;5.076;2023-05-24T02:27:28;101903.78;;;13.13;51.89
60974;BME280;46846;51.528;5.076;2023-05-24T02:29:54;101905.66;;;13.11;52.02
60974;BME280;46846;51.528;5.076;2023-05-24T02:32:20;101897.66;;;13.09;51.96
60974;BME280;46846;51.528;5.076;2023-05-24T02:34:45;101898.72;;;13.04;52.08
60974;BME280;46846;51.528;5.076;2023-05-24T02:37:10;101901.53;;;12.99;51.98
60974;BME280;46846;51.528;5.076;2023-05-24T02:39:39;101906.88;;;12.99;51.87
60974;BME280;46846;51.528;5.076;2023-05-24T02:42:06;101902.47;;;12.96;52.09
60974;BME280;46846;51.528;5.076;2023-05-24T02:44:33;101893.59;;;12.94;51.92
60974;BME280;46846;51.528;5.076;2023-05-24T02:46:58;101899.00;;;12.93;51.81
60974;BME280;46846;51.528;5.076;2023-05-24T02:49:23;101893.69;;;12.91;51.95
60974;BME280;46846;51.528;5.076;2023-05-24T02:51:49;101906.22;;;12.89;52.10
60974;BME280;46846;51.528;5.076;2023-05-24T02:54:15;101898.25;;;12.88;51.98
60974;BME280;46846;51.528;5.076;2023-05-24T02:56:41;101901.88;;;12.85;52.21
60974;BME280;46846;51.528;5.076;2023-05-24T02:59:07;101903.72;;;12.83;51.90
60974;BME280;46846;51.528;5.076;2023-05-24T03:01:32;101905.66;;;12.76;52.29
60974;BME280;46846;51.528;5.076;2023-05-24T03:03:58;101912.00;;;12.72;52.04
60974;BME280;46846;51.528;5.076;2023-05-24T03:06:23;101912.00;;;12.72;52.38
60974;BME280;46846;51.528;5.076;2023-05-24T03:08:49;101905.88;;;12.68;52.03
60974;BME280;46846;51.528;5.076;2023-05-24T03:11:15;101897.97;;;12.65;52.34
60974;BME280;46846;51.528;5.076;2023-05-24T03:13:41;101904.19;;;12.64;52.26
60974;BME280;46846;51.528;5.076;2023-05-24T03:16:06;101902.44;;;12.63;52.00
60974;BME280;46846;51.528;5.076;2023-05-24T03:18:32;101908.78;;;12.59;52.25
60974;BME280;46846;51.528;5.076;2023-05-24T03:20:57;101905.25;;;12.57;52.45
60974;BME280;46846;51.528;5.076;2023-05-24T03:23:22;101904.41;;;12.56;52.38
60974;BME280;46846;51.528;5.076;2023-05-24T03:25:48;101904.53;;;12.52;52.45
60974;BME280;46846;51.528;5.076;2023-05-24T03:28:13;101900.13;;;12.49;52.53
60974;BME280;46846;51.528;5.076;2023-05-24T03:30:39;101902.84;;;12.48;52.47
60974;BME280;46846;51.528;5.076;2023-05-24T03:33:04;101905.50;;;12.48;52.47
60974;BME280;46846;51.528;5.076;2023-05-24T03:35:30;101912.69;;;12.46;52.34
60974;BME280;46846;51.528;5.076;2023-05-24T03:37:55;101904.78;;;12.41;52.19
60974;BME280;46846;51.528;5.076;2023-05-24T03:40:20;101904.78;;;12.41;52.49
60974;BME280;46846;51.528;5.076;2023-05-24T03:42:46;101905.72;;;12.40;52.56
60974;BME280;46846;51.528;5.076;2023-05-24T03:45:11;101903.06;;;12.40;52.61
60974;BME280;46846;51.528;5.076;2023-05-24T03:47:37;101900.41;;;12.38;52.26
60974;BME280;46846;51.528;5.076;2023-05-24T03:50:02;101887.97;;;12.37;52.60
60974;BME280;46846;51.528;5.076;2023-05-24T03:52:28;101895.22;;;12.32;52.21
60974;BME280;46846;51.528;5.076;2023-05-24T03:54:53;101890.81;;;12.31;52.58
60974;BME280;46846;51.528;5.076;2023-05-24T03:57:19;101897.13;;;12.27;52.56
60974;BME280;46846;51.528;5.076;2023-05-24T03:59:44;101888.28;;;12.25;52.31
60974;BME280;46846;51.528;5.076;2023-05-24T04:02:09;101898.09;;;12.24;52.83
60974;BME280;46846;51.528;5.076;2023-05-24T04:04:35;101895.44;;;12.23;52.50
60974;BME280;46846;51.528;5.076;2023-05-24T04:07:01;101896.38;;;12.22;52.70
60974;BME280;46846;51.528;5.076;2023-05-24T04:09:27;101899.06;;;12.20;52.79
60974;BME280;46846;51.528;5.076;2023-05-24T04:11:53;101904.44;;;12.19;52.45
60974;BME280;46846;51.528;5.076;2023-05-24T04:14:18;101911.59;;;12.16;52.50
60974;BME280;46846;51.528;5.076;2023-05-24T04:16:43;101911.59;;;12.16;52.70
60974;BME280;46846;51.528;5.076;2023-05-24T04:19:09;101922.38;;;12.12;52.73
60974;BME280;46846;51.528;5.076;2023-05-24T04:21:34;101919.78;;;12.09;52.59
60974;BME280;46846;51.528;5.076;2023-05-24T04:24:00;101913.59;;;12.08;52.67
60974;BME280;46846;51.528;5.076;2023-05-24T04:26:26;101918.97;;;12.05;52.79
60974;BME280;46846;51.528;5.076;2023-05-24T04:28:52;101904.75;;;12.06;52.93
60974;BME280;46846;51.528;5.076;2023-05-24T04:31:17;101901.22;;;12.04;52.72
60974;BME280;46846;51.528;5.076;2023-05-24T04:33:44;101895.91;;;12.02;52.72
60974;BME280;46846;51.528;5.076;2023-05-24T04:36:09;101899.47;;;12.03;52.58
60974;BME280;46846;51.528;5.076;2023-05-24T04:38:36;101900.34;;;12.03;52.92
60974;BME280;46846;51.528;5.076;2023-05-24T04:41:03;101895.00;;;12.02;52.58
60974;BME280;46846;51.528;5.076;2023-05-24T04:43:30;101898.56;;;12.02;52.71
60974;BME280;46846;51.528;5.076;2023-05-24T04:45:56;101894.19;;;12.00;52.94
60974;BME280;46846;51.528;5.076;2023-05-24T04:48:22;101897.91;;;11.93;52.94
60974;BME280;46846;51.528;5.076;2023-05-24T04:50:52;101899.56;;;11.97;52.77
60974;BME280;46846;51.528;5.076;2023-05-24T04:53:19;101901.38;;;11.96;52.83
60974;BME280;46846;51.528;5.076;2023-05-24T04:55:45;101903.16;;;11.96;53.01
60974;BME280;46846;51.528;5.076;2023-05-24T04:58:10;101900.53;;;11.94;52.58
60974;BME280;46846;51.528;5.076;2023-05-24T05:00:36;101901.41;;;11.95;52.97
60974;BME280;46846;51.528;5.076;2023-05-24T05:03:01;101904.09;;;11.93;52.82
60974;BME280;46846;51.528;5.076;2023-05-24T05:05:27;101900.53;;;11.94;52.84
60974;BME280;46846;51.528;5.076;2023-05-24T05:07:53;101899.63;;;11.95;52.85
60974;BME280;46846;51.528;5.076;2023-05-24T05:10:18;101907.63;;;11.95;52.84
60974;BME280;46846;51.528;5.076;2023-05-24T05:12:44;101912.91;;;11.97;52.81
60974;BME280;46846;51.528;5.076;2023-05-24T05:15:09;101912.16;;;11.92;52.74
60974;BME280;46846;51.528;5.076;2023-05-24T05:17:34;101907.75;;;11.89;53.00
60974;BME280;46846;51.528;5.076;2023-05-24T05:20:00;101911.28;;;11.89;52.83
60974;BME280;46846;51.528;5.076;2023-05-24T05:22:25;101912.22;;;11.88;53.17
60974;BME280;46846;51.528;5.076;2023-05-24T05:24:51;101912.16;;;11.92;53.12
60974;BME280;46846;51.528;5.076;2023-05-24T05:27:17;101909.50;;;11.92;52.91
60974;BME280;46846;51.528;5.076;2023-05-24T05:29:42;101910.31;;;11.94;52.93
60974;BME280;46846;51.528;5.076;2023-05-24T05:32:08;101917.34;;;11.98;53.00
60974;BME280;46846;51.528;5.076;2023-05-24T05:34:33;101917.41;;;11.95;53.21
60974;BME280;46846;51.528;5.076;2023-05-24T05:36:59;101910.25;;;11.97;53.09
60974;BME280;46846;51.528;5.076;2023-05-24T05:39:24;101907.66;;;11.94;53.36
60974;BME280;46846;51.528;5.076;2023-05-24T05:41:49;101913.78;;;11.99;53.33
60974;BME280;46846;51.528;5.076;2023-05-24T05:44:15;101907.53;;;11.98;53.13
60974;BME280;46846;51.528;5.076;2023-05-24T05:46:40;101908.44;;;11.99;53.06
60974;BME280;46846;51.528;5.076;2023-05-24T05:49:08;101913.69;;;12.03;53.19
60974;BME280;46846;51.528;5.076;2023-05-24T05:51:33;101916.22;;;12.10;53.07
60974;BME280;46846;51.528;5.076;2023-05-24T05:53:59;101917.97;;;12.11;53.40
60974;BME280;46846;51.528;5.076;2023-05-24T05:56:24;101926.00;;;12.09;53.16
60974;BME280;46846;51.528;5.076;2023-05-24T05:58:51;101924.13;;;12.14;53.29
60974;BME280;46846;51.528;5.076;2023-05-24T06:01:16;101932.06;;;12.16;53.11
60974;BME280;46846;51.528;5.076;2023-05-24T06:03:42;101941.88;;;12.15;53.22
60974;BME280;46846;51.528;5.076;2023-05-24T06:06:07;101938.25;;;12.18;53.13
60974;BME280;46846;51.528;5.076;2023-05-24T06:08:32;101936.53;;;12.15;53.01
60974;BME280;46846;51.528;5.076;2023-05-24T06:10:59;101941.78;;;12.19;53.23
60974;BME280;46846;51.528;5.076;2023-05-24T06:13:24;101932.81;;;12.23;53.08
60974;BME280;46846;51.528;5.076;2023-05-24T06:15:55;101930.03;;;12.27;52.78
60974;BME280;46846;51.528;5.076;2023-05-24T06:18:20;101941.59;;;12.28;53.03
60974;BME280;46846;51.528;5.076;2023-05-24T06:20:45;101936.31;;;12.25;53.05
60974;BME280;46846;51.528;5.076;2023-05-24T06:23:11;101938.06;;;12.26;53.16
60974;BME280;46846;51.528;5.076;2023-05-24T06:25:36;101949.66;;;12.25;53.35
60974;BME280;46846;51.528;5.076;2023-05-24T06:28:02;101935.38;;;12.27;53.08
60974;BME280;46846;51.528;5.076;2023-05-24T06:30:28;101941.50;;;12.31;53.13
60974;BME280;46846;51.528;5.076;2023-05-24T06:32:53;101942.44;;;12.30;53.34
60974;BME280;46846;51.528;5.076;2023-05-24T06:35:18;101941.63;;;12.26;53.46
60974;BME280;46846;51.528;5.076;2023-05-24T06:37:44;101940.63;;;12.30;53.57
60974;BME280;46846;51.528;5.076;2023-05-24T06:40:09;101941.50;;;12.31;53.94
60974;BME280;46846;51.528;5.076;2023-05-24T06:42:35;101947.53;;;12.39;53.55
60974;BME280;46846;51.528;5.076;2023-05-24T06:45:01;101952.06;;;12.36;53.77
60974;BME280;46846;51.528;5.076;2023-05-24T06:47:26;101951.94;;;12.40;54.14
60974;BME280;46846;51.528;5.076;2023-05-24T06:49:52;101951.16;;;12.37;53.86
60974;BME280;46846;51.528;5.076;2023-05-24T06:52:17;101959.16;;;12.37;54.00
60974;BME280;46846;51.528;5.076;2023-05-24T06:54:43;101951.94;;;12.40;54.17
60974;BME280;46846;51.528;5.076;2023-05-24T06:57:08;101955.50;;;12.41;54.12
60974;BME280;46846;51.528;5.076;2023-05-24T06:59:34;101964.44;;;12.40;54.46
60974;BME280;46846;51.528;5.076;2023-05-24T07:01:59;101954.59;;;12.42;54.56
60974;BME280;46846;51.528;5.076;2023-05-24T07:04:25;101947.25;;;12.52;54.42
60974;BME280;46846;51.528;5.076;2023-05-24T07:06:52;101940.03;;;12.55;54.45
60974;BME280;46846;51.528;5.076;2023-05-24T07:09:18;101938.16;;;12.59;54.29
60974;BME280;46846;51.528;5.076;2023-05-24T07:11:44;101940.75;;;12.62;54.49
60974;BME280;46846;51.528;5.076;2023-05-24T07:14:09;101941.63;;;12.63;54.57
60974;BME280;46846;51.528;5.076;2023-05-24T07:16:35;101940.50;;;12.71;54.23
60974;BME280;46846;51.528;5.076;2023-05-24T07:19:01;101940.44;;;12.75;54.14
60974;BME280;46846;51.528;5.076;2023-05-24T07:21:26;101934.94;;;12.81;54.19
60974;BME280;46846;51.528;5.076;2023-05-24T07:23:52;101933.00;;;12.86;54.13
60974;BME280;46846;51.528;5.076;2023-05-24T07:26:17;101939.09;;;12.93;54.71
60974;BME280;46846;51.528;5.076;2023-05-24T07:28:43;101944.38;;;12.94;54.01
60974;BME280;46846;51.528;5.076;2023-05-24T07:31:09;101946.94;;;12.99;54.42
60974;BME280;46846;51.528;5.076;2023-05-24T07:33:37;101939.78;;;12.99;54.06
60974;BME280;46846;51.528;5.076;2023-05-24T07:36:04;101946.66;;;13.10;54.50
60974;BME280;46846;51.528;5.076;2023-05-24T07:38:30;101943.91;;;13.11;54.21
60974;BME280;46846;51.528;5.076;2023-05-24T07:40:58;101940.19;;;13.17;54.33
60974;BME280;46846;51.528;5.076;2023-05-24T07:43:24;101933.84;;;13.21;54.36
60974;BME280;46846;51.528;5.076;2023-05-24T07:45:51;101940.78;;;13.29;54.06
60974;BME280;46846;51.528;5.076;2023-05-24T07:48:17;101944.13;;;13.35;54.05
60974;BME280;46846;51.528;5.076;2023-05-24T07:50:43;101947.59;;;13.39;54.27
60974;BME280;46846;51.528;5.076;2023-05-24T07:53:15;101943.00;;;13.44;54.28
60974;BME280;46846;51.528;5.076;2023-05-24T07:55:41;101936.59;;;13.51;53.80
60974;BME280;46846;51.528;5.076;2023-05-24T07:58:06;101948.19;;;13.52;54.60
60974;BME280;46846;51.528;5.076;2023-05-24T08:00:31;101957.06;;;13.52;54.26
60974;BME280;46846;51.528;5.076;2023-05-24T08:02:58;101954.22;;;13.59;54.43
60974;BME280;46846;51.528;5.076;2023-05-24T08:05:23;101956.84;;;13.60;54.43
60974;BME280;46846;51.528;5.076;2023-05-24T08:07:49;101952.16;;;13.69;54.48
60974;BME280;46846;51.528;5.076;2023-05-24T08:10:14;101946.78;;;13.70;54.57
60974;BME280;46846;51.528;5.076;2023-05-24T08:12:40;101945.69;;;13.76;54.35
60974;BME280;46846;51.528;5.076;2023-05-24T08:15:06;101947.31;;;13.81;54.69
60974;BME280;46846;51.528;5.076;2023-05-24T08:17:32;101949.84;;;13.86;54.72
60974;BME280;46846;51.528;5.076;2023-05-24T08:19:58;101947.88;;;13.93;54.51
60974;BME280;46846;51.528;5.076;2023-05-24T08:22:23;101943.09;;;14.03;54.22
60974;BME280;46846;51.528;5.076;2023-05-24T08:24:48;101944.63;;;14.10;54.14
60974;BME280;46846;51.528;5.076;2023-05-24T08:27:14;101948.88;;;14.17;54.31
60974;BME280;46846;51.528;5.076;2023-05-24T08:29:39;101940.75;;;14.20;53.31
60974;BME280;46846;51.528;5.076;2023-05-24T08:32:05;101938.88;;;14.24;53.79
60974;BME280;46846;51.528;5.076;2023-05-24T08:34:35;101943.13;;;14.30;54.25
60974;BME280;46846;51.528;5.076;2023-05-24T08:37:01;101940.25;;;14.36;54.03
60974;BME280;46846;51.528;5.076;2023-05-24T08:39:27;101939.22;;;14.40;54.27
60974;BME280;46846;51.528;5.076;2023-05-24T08:41:53;101939.03;;;14.46;54.34
60974;BME280;46846;51.528;5.076;2023-05-24T08:44:20;101935.22;;;14.54;52.65
60974;BME280;46846;51.528;5.076;2023-05-24T08:46:47;101931.44;;;14.59;53.74
60974;BME280;46846;51.528;5.076;2023-05-24T08:49:13;101928.47;;;14.69;52.84
60974;BME280;46846;51.528;5.076;2023-05-24T08:51:39;101923.75;;;14.77;53.15
60974;BME280;46846;51.528;5.076;2023-05-24T08:54:05;101925.28;;;14.84;52.41
60974;BME280;46846;51.528;5.076;2023-05-24T08:56:32;101926.91;;;14.88;52.77
60974;BME280;46846;51.528;5.076;2023-05-24T08:58:58;101927.69;;;14.92;53.67
60974;BME280;46846;51.528;5.076;2023-05-24T09:01:24;101923.09;;;14.96;53.38
60974;BME280;46846;51.528;5.076;2023-05-24T09:03:50;101924.63;;;15.03;52.36
60974;BME280;46846;51.528;5.076;2023-05-24T09:06:17;101922.78;;;15.05;53.77
60974;BME280;46846;51.528;5.076;2023-05-24T09:08:43;101918.97;;;15.12;53.13
60974;BME280;46846;51.528;5.076;2023-05-24T09:11:14;101919.72;;;15.16;53.73
60974;BME280;46846;51.528;5.076;2023-05-24T09:13:42;101916.88;;;15.21;53.85
60974;BME280;46846;51.528;5.076;2023-05-24T09:16:08;101920.13;;;15.29;53.71
60974;BME280;46846;51.528;5.076;2023-05-24T09:18:34;101919.06;;;15.33;53.37
60974;BME280;46846;51.528;5.076;2023-05-24T09:20:59;101917.16;;;15.37;53.77
60974;BME280;46846;51.528;5.076;2023-05-24T09:23:25;101916.06;;;15.42;53.64
60974;BME280;46846;51.528;5.076;2023-05-24T09:25:51;101915.94;;;15.45;53.53
60974;BME280;46846;51.528;5.076;2023-05-24T09:28:17;101911.28;;;15.51;53.71
60974;BME280;46846;51.528;5.076;2023-05-24T09:30:44;101920.91;;;15.56;53.40
60974;BME280;46846;51.528;5.076;2023-05-24T09:33:10;101914.47;;;15.61;53.64
60974;BME280;46846;51.528;5.076;2023-05-24T09:35:41;101911.44;;;15.70;52.71
60974;BME280;46846;51.528;5.076;2023-05-24T09:38:16;101909.38;;;15.77;51.80
60974;BME280;46846;51.528;5.076;2023-05-24T09:40:44;101910.09;;;15.82;53.08
60974;BME280;46846;51.528;5.076;2023-05-24T09:43:11;101917.00;;;15.88;53.32
60974;BME280;46846;51.528;5.076;2023-05-24T09:45:45;101917.91;;;15.88;53.29
60974;BME280;46846;51.528;5.076;2023-05-24T09:48:15;101917.78;;;15.91;53.49
60974;BME280;46846;51.528;5.076;2023-05-24T09:50:57;101910.34;;;15.98;53.02
60974;BME280;46846;51.528;5.076;2023-05-24T09:53:23;101903.69;;;16.08;52.73
60974;BME280;46846;51.528;5.076;2023-05-24T09:55:49;101911.56;;;16.13;52.64
60974;BME280;46846;51.528;5.076;2023-05-24T09:58:15;101902.38;;;16.19;52.55
60974;BME280;46846;51.528;5.076;2023-05-24T10:00:41;101901.28;;;16.24;53.11
60974;BME280;46846;51.528;5.076;2023-05-24T10:03:09;101902.81;;;16.30;52.56
60974;BME280;46846;51.528;5.076;2023-05-24T10:05:41;101901.69;;;16.36;52.27
60974;BME280;46846;51.528;5.076;2023-05-24T10:08:08;101909.50;;;16.42;51.62
60974;BME280;46846;51.528;5.076;2023-05-24T10:10:34;101899.44;;;16.47;51.33
60974;BME280;46846;51.528;5.076;2023-05-24T10:13:01;101903.78;;;16.50;52.68
60974;BME280;46846;51.528;5.076;2023-05-24T10:15:27;101898.22;;;16.54;52.16
60974;BME280;46846;51.528;5.076;2023-05-24T10:17:53;101898.03;;;16.59;52.31
60974;BME280;46846;51.528;5.076;2023-05-24T10:20:19;101892.50;;;16.62;52.34
60974;BME280;46846;51.528;5.076;2023-05-24T10:22:46;101887.00;;;16.65;52.39
60974;BME280;46846;51.528;5.076;2023-05-24T10:25:32;101883.09;;;16.73;52.47
60974;BME280;46846;51.528;5.076;2023-05-24T10:28:06;101894.59;;;16.76;51.96
60974;BME280;46846;51.528;5.076;2023-05-24T10:30:53;101888.94;;;16.83;51.95
60974;BME280;46846;51.528;5.076;2023-05-24T10:33:23;101887.81;;;16.88;52.13
60974;BME280;46846;51.528;5.076;2023-05-24T10:35:50;101891.31;;;16.90;51.96
60974;BME280;46846;51.528;5.076;2023-05-24T10:38:15;101883.19;;;16.92;52.03
60974;BME280;46846;51.528;5.076;2023-05-24T10:40:41;101884.72;;;16.98;51.95
60974;BME280;46846;51.528;5.076;2023-05-24T10:43:08;101879.16;;;17.02;51.89
60974;BME280;46846;51.528;5.076;2023-05-24T10:45:38;101879.16;;;17.02;52.30
60974;BME280;46846;51.528;5.076;2023-05-24T10:50:52;101890.22;;;17.15;49.08
60974;BME280;46846;51.528;5.076;2023-05-24T10:53:20;101883.69;;;17.21;51.74
60974;BME280;46846;51.528;5.076;2023-05-24T10:55:59;101877.44;;;17.20;51.65
60974;BME280;46846;51.528;5.076;2023-05-24T11:00:57;101886.09;;;17.27;51.64
60974;BME280;46846;51.528;5.076;2023-05-24T11:03:22;101879.66;;;17.31;45.03
60974;BME280;46846;51.528;5.076;2023-05-24T11:08:28;101887.13;;;17.44;50.96
60974;BME280;46846;51.528;5.076;2023-05-24T11:11:10;101877.09;;;17.47;51.22
60974;BME280;46846;51.528;5.076;2023-05-24T11:13:39;101877.03;;;17.49;51.38
60974;BME280;46846;51.528;5.076;2023-05-24T11:16:05;101875.94;;;17.53;51.54
60974;BME280;46846;51.528;5.076;2023-05-24T11:18:31;101880.38;;;17.54;50.69
60974;BME280;46846;51.528;5.076;2023-05-24T11:21:01;101881.13;;;17.58;51.32
60974;BME280;46846;51.528;5.076;2023-05-24T11:23:28;101886.72;;;17.53;51.98
60974;BME280;46846;51.528;5.076;2023-05-24T11:25:55;101877.75;;;17.53;52.01
60974;BME280;46846;51.528;5.076;2023-05-24T11:28:21;101882.13;;;17.55;51.83
60974;BME280;46846;51.528;5.076;2023-05-24T11:30:47;101881.16;;;17.56;51.90
60974;BME280;46846;51.528;5.076;2023-05-24T11:35:38;101880.09;;;17.60;51.94
60974;BME280;46846;51.528;5.076;2023-05-24T11:38:09;101876.16;;;17.68;51.05
60974;BME280;46846;51.528;5.076;2023-05-24T11:40:38;101879.94;;;17.63;50.99
60974;BME280;46846;51.528;5.076;2023-05-24T11:43:09;101877.97;;;17.67;51.52
60974;BME280;46846;51.528;5.076;2023-05-24T11:45:35;101879.72;;;17.68;51.95
60974;BME280;46846;51.528;5.076;2023-05-24T11:48:03;101879.66;;;17.70;52.03
60974;BME280;46846;51.528;5.076;2023-05-24T11:50:30;101879.88;;;17.65;50.58
60974;BME280;46846;51.528;5.076;2023-05-24T11:53:01;101876.00;;;17.71;50.77
60974;BME280;46846;51.528;5.076;2023-05-24T11:55:27;101880.22;;;17.76;49.87
60974;BME280;46846;51.528;5.076;2023-05-24T11:57:56;101878.47;;;17.75;50.63
60974;BME280;46846;51.528;5.076;2023-05-24T12:00:26;101875.84;;;17.74;50.85
60974;BME280;46846;51.528;5.076;2023-05-24T12:02:55;101874.69;;;17.80;50.03
60974;BME280;46846;51.528;5.076;2023-05-24T12:05:20;101871.91;;;17.81;49.84
60974;BME280;46846;51.528;5.076;2023-05-24T12:07:46;101875.56;;;17.80;50.46
60974;BME280;46846;51.528;5.076;2023-05-24T12:10:15;101870.16;;;17.80;50.53
60974;BME280;46846;51.528;5.076;2023-05-24T12:12:44;101874.53;;;17.83;50.41
60974;BME280;46846;51.528;5.076;2023-05-24T12:15:10;101864.56;;;17.85;49.23
60974;BME280;46846;51.528;5.076;2023-05-24T12:17:36;101877.88;;;17.88;50.38
60974;BME280;46846;51.528;5.076;2023-05-24T12:20:02;101869.81;;;17.88;50.64
60974;BME280;46846;51.528;5.076;2023-05-24T12:22:30;101863.53;;;17.87;50.16
60974;BME280;46846;51.528;5.076;2023-05-24T12:24:56;101871.72;;;17.86;50.32
60974;BME280;46846;51.528;5.076;2023-05-24T12:27:29;101868.78;;;17.90;50.59
60974;BME280;46846;51.528;5.076;2023-05-24T12:29:56;101877.81;;;17.89;51.09
60974;BME280;46846;51.528;5.076;2023-05-24T12:32:22;101862.38;;;17.93;50.58
60974;BME280;46846;51.528;5.076;2023-05-24T12:34:48;101863.53;;;17.87;50.73
60974;BME280;46846;51.528;5.076;2023-05-24T12:37:14;101866.81;;;17.94;50.45
60974;BME280;46846;51.528;5.076;2023-05-24T12:39:40;101870.38;;;17.95;50.43
60974;BME280;46846;51.528;5.076;2023-05-24T12:42:06;101864.03;;;17.96;50.34
60974;BME280;46846;51.528;5.076;2023-05-24T12:44:34;101863.72;;;18.02;50.17
60974;BME280;46846;51.528;5.076;2023-05-24T12:47:02;101862.94;;;18.00;50.41
60974;BME280;46846;51.528;5.076;2023-05-24T12:49:28;101861.84;;;18.04;50.08
60974;BME280;46846;51.528;5.076;2023-05-24T12:51:54;101864.34;;;18.09;50.23
60974;BME280;46846;51.528;5.076;2023-05-24T12:54:30;101857.91;;;18.11;50.21
60974;BME280;46846;51.528;5.076;2023-05-24T12:56:56;101866.81;;;18.13;50.53
60974;BME280;46846;51.528;5.076;2023-05-24T12:59:24;101859.81;;;18.09;50.78
60974;BME280;46846;51.528;5.076;2023-05-24T13:01:50;101861.56;;;18.10;50.10
60974;BME280;46846;51.528;5.076;2023-05-24T13:04:17;101852.53;;;18.11;50.45
60974;BME280;46846;51.528;5.076;2023-05-24T13:06:43;101860.53;;;18.13;50.89
60974;BME280;46846;51.528;5.076;2023-05-24T13:09:09;101850.47;;;18.16;51.01
60974;BME280;46846;51.528;5.076;2023-05-24T13:11:35;101855.09;;;18.14;50.71
60974;BME280;46846;51.528;5.076;2023-05-24T13:14:04;101855.72;;;18.20;50.73
60974;BME280;46846;51.528;5.076;2023-05-24T13:16:31;101855.63;;;18.21;50.55
60974;BME280;46846;51.528;5.076;2023-05-24T13:18:58;101848.44;;;18.22;49.80